createdAt,value
2019-01-16T00:00:18.425Z,6.41
2019-01-16T00:03:08.514Z,6.42
2019-01-16T00:05:57.316Z,6.46
2019-01-16T00:08:47.169Z,6.48
2019-01-16T00:11:44.920Z,6.48
2019-01-16T00:14:37.534Z,6.46
2019-01-16T00:17:30.415Z,6.50
2019-01-16T00:20:20.270Z,6.54
2019-01-16T00:23:08.775Z,6.55
2019-01-16T00:26:01.990Z,6.54
2019-01-16T00:29:10.343Z,6.51
2019-01-16T00:31:54.871Z,6.53
2019-01-16T00:34:50.839Z,6.53
2019-01-16T00:37:43.969Z,6.55
2019-01-16T00:40:33.857Z,6.55
2019-01-16T00:43:30.029Z,6.54
2019-01-16T00:46:29.141Z,6.55
2019-01-16T00:49:19.101Z,6.49
2019-01-16T00:52:07.861Z,6.45
2019-01-16T00:54:58.649Z,6.39
2019-01-16T00:57:48.548Z,6.37
2019-01-16T01:00:34.799Z,6.32
2019-01-16T01:03:15.770Z,6.32
2019-01-16T01:06:11.717Z,6.33
2019-01-16T01:09:07.863Z,6.35
2019-01-16T01:11:51.247Z,6.34
2019-01-16T01:14:50.402Z,6.32
2019-01-16T01:17:36.756Z,6.32
2019-01-16T01:20:25.965Z,6.28
2019-01-16T01:23:03.106Z,6.23
2019-01-16T01:25:59.220Z,6.20
2019-01-16T01:29:04.146Z,6.22
2019-01-16T01:31:54.022Z,6.19
2019-01-16T01:34:35.910Z,6.18
2019-01-16T01:37:34.839Z,6.16
2019-01-16T01:40:37.942Z,6.17
2019-01-16T01:43:33.637Z,6.14
2019-01-16T01:46:22.517Z,6.11
2019-01-16T01:49:15.156Z,6.14
2019-01-16T01:52:23.233Z,6.15
2019-01-16T01:55:07.628Z,6.16
2019-01-16T01:57:57.504Z,6.18
2019-01-16T02:00:47.422Z,6.19
2019-01-16T02:03:37.542Z,6.21
2019-01-16T02:06:26.413Z,6.16
2019-01-16T02:09:10.550Z,6.18
2019-01-16T02:12:00.548Z,6.14
2019-01-16T02:14:50.509Z,6.17
2019-01-16T02:17:53.439Z,6.21
2019-01-16T02:20:41.027Z,6.20
2019-01-16T02:23:36.915Z,6.24
2019-01-16T02:26:26.801Z,6.23
2019-01-16T02:29:31.853Z,6.27
2019-01-16T02:32:27.786Z,6.29
2019-01-16T02:35:20.657Z,6.29
2019-01-16T02:38:16.274Z,6.29
2019-01-16T02:41:09.373Z,6.30
2019-01-16T02:43:58.365Z,6.30
2019-01-16T02:46:43.445Z,6.30
2019-01-16T02:49:45.620Z,6.23
2019-01-16T02:52:34.260Z,6.21
2019-01-16T02:55:39.291Z,6.15
2019-01-16T02:58:22.127Z,6.10
2019-01-16T03:01:12.112Z,6.13
2019-01-16T03:04:17.160Z,6.11
2019-01-16T03:06:57.534Z,6.18
2019-01-16T03:09:51.081Z,6.21
2019-01-16T03:12:50.082Z,6.18
2019-01-16T03:15:40.037Z,6.18
2019-01-16T03:18:29.932Z,6.11
2019-01-16T03:21:19.900Z,6.17
2019-01-16T03:24:15.553Z,6.16
2019-01-16T03:27:05.128Z,6.19
2019-01-16T03:29:49.569Z,6.16
2019-01-16T03:32:39.611Z,6.20
2019-01-16T03:35:27.740Z,6.19
2019-01-16T03:38:23.446Z,6.25
2019-01-16T03:41:19.580Z,6.28
2019-01-16T03:44:09.823Z,6.26
2019-01-16T03:46:49.467Z,6.26
2019-01-16T03:49:37.987Z,6.31
2019-01-16T03:52:26.958Z,6.34
2019-01-16T03:55:18.112Z,6.43
2019-01-16T03:58:11.020Z,6.44
2019-01-16T04:01:07.190Z,6.44
2019-01-16T04:03:52.733Z,6.34
2019-01-16T04:06:48.389Z,6.42
2019-01-16T04:09:54.490Z,6.46
2019-01-16T04:12:41.339Z,6.35
2019-01-16T04:15:25.804Z,6.38
2019-01-16T04:18:18.590Z,6.45
2019-01-16T04:21:07.566Z,6.39
2019-01-16T04:24:00.592Z,6.43
2019-01-16T04:26:49.225Z,6.40
2019-01-16T04:29:41.934Z,6.50
2019-01-16T04:32:30.682Z,6.48
2019-01-16T04:35:19.149Z,6.50
2019-01-16T04:38:09.029Z,6.59
2019-01-16T04:40:56.268Z,6.64
2019-01-16T04:43:52.308Z,6.65
2019-01-16T04:46:41.108Z,6.59
2019-01-16T04:49:30.816Z,6.59
2019-01-16T04:52:30.081Z,6.61
2019-01-16T04:55:18.838Z,6.65
2019-01-16T04:58:02.965Z,6.59
2019-01-16T05:00:49.565Z,6.53
2019-01-16T05:03:38.330Z,6.52
2019-01-16T05:06:52.104Z,6.50
2019-01-16T05:09:42.052Z,6.37
2019-01-16T05:12:27.274Z,6.39
2019-01-16T05:15:16.156Z,6.37
2019-01-16T05:18:05.358Z,6.34
2019-01-16T05:20:58.805Z,6.28
2019-01-16T05:23:54.907Z,6.27
2019-01-16T05:26:35.686Z,6.22
2019-01-16T05:29:29.038Z,6.26
2019-01-16T05:32:07.090Z,6.32
2019-01-16T05:34:55.613Z,6.38
2019-01-16T05:37:51.721Z,6.40
2019-01-16T05:40:52.295Z,6.48
2019-01-16T05:43:39.686Z,6.56
2019-01-16T05:46:32.737Z,6.60
2019-01-16T05:49:26.165Z,6.62
2019-01-16T05:52:28.213Z,6.68
2019-01-16T05:55:16.765Z,6.62
2019-01-16T05:58:07.287Z,6.60
2019-01-16T06:00:55.802Z,6.61
2019-01-16T06:04:00.299Z,6.59
2019-01-16T06:06:50.271Z,6.61
2019-01-16T06:09:32.776Z,6.59
2019-01-16T06:12:31.940Z,6.61
2019-01-16T06:15:24.605Z,6.62
2019-01-16T06:18:14.889Z,6.63
2019-01-16T06:21:07.816Z,6.60
2019-01-16T06:23:56.495Z,6.59
2019-01-16T06:26:39.126Z,6.55
2019-01-16T06:29:44.173Z,6.51
2019-01-16T06:32:36.698Z,6.51
2019-01-16T06:35:16.739Z,6.47
2019-01-16T06:38:11.674Z,6.48
2019-01-16T06:41:01.572Z,6.54
2019-01-16T06:44:06.744Z,6.61
2019-01-16T06:46:59.782Z,6.64
2019-01-16T06:49:48.375Z,6.69
2019-01-16T06:52:40.987Z,6.77
2019-01-16T06:55:46.196Z,6.75
2019-01-16T06:58:34.585Z,6.78
2019-01-16T07:01:23.060Z,6.79
2019-01-16T07:04:11.629Z,6.82
2019-01-16T07:06:54.709Z,6.81
2019-01-16T07:09:43.458Z,6.78
2019-01-16T07:12:38.694Z,6.79
2019-01-16T07:15:37.870Z,6.81
2019-01-16T07:18:36.905Z,6.80
2019-01-16T07:21:26.839Z,6.74
2019-01-16T07:24:16.755Z,6.73
2019-01-16T07:27:18.555Z,6.76
2019-01-16T07:30:14.641Z,6.74
2019-01-16T07:33:16.569Z,6.72
2019-01-16T07:36:14.024Z,6.69
2019-01-16T07:38:59.962Z,6.67
2019-01-16T07:42:11.233Z,6.67
2019-01-16T07:44:51.087Z,6.68
2019-01-16T07:47:56.209Z,6.66
2019-01-16T07:50:48.775Z,6.68
2019-01-16T07:53:37.612Z,6.72
2019-01-16T07:56:26.210Z,6.75
2019-01-16T07:59:22.307Z,6.83
2019-01-16T08:02:10.932Z,6.84
2019-01-16T08:05:03.843Z,6.88
2019-01-16T08:07:59.881Z,6.82
2019-01-16T08:10:52.836Z,6.86
2019-01-16T08:13:41.609Z,6.89
2019-01-16T08:16:30.666Z,6.90
2019-01-16T08:19:13.246Z,6.89
2019-01-16T08:21:57.997Z,6.94
2019-01-16T08:24:46.531Z,6.91
2019-01-16T08:27:35.550Z,6.78
2019-01-16T08:30:31.132Z,6.72
2019-01-16T08:33:18.441Z,6.68
2019-01-16T08:36:19.595Z,6.63
2019-01-16T08:39:18.973Z,6.64
2019-01-16T08:42:18.909Z,6.63
2019-01-16T08:45:05.443Z,6.67
2019-01-16T08:48:10.617Z,6.67
2019-01-16T08:51:03.655Z,6.68
2019-01-16T08:53:53.045Z,6.69
2019-01-16T08:56:46.105Z,6.66
2019-01-16T08:59:35.204Z,6.69
2019-01-16T09:02:25.142Z,6.71
2019-01-16T09:05:13.870Z,6.75
2019-01-16T09:08:02.918Z,6.78
2019-01-16T09:10:59.010Z,6.78
2019-01-16T09:14:01.515Z,6.75
2019-01-16T09:16:57.289Z,6.66
2019-01-16T09:19:43.747Z,6.59
2019-01-16T09:22:24.157Z,6.51
2019-01-16T09:25:20.522Z,6.48
2019-01-16T09:28:09.307Z,6.46
2019-01-16T09:31:11.549Z,6.44
2019-01-16T09:34:07.133Z,6.39
2019-01-16T09:37:03.113Z,6.45
2019-01-16T09:39:45.724Z,6.44
2019-01-16T09:42:23.391Z,6.45
2019-01-16T09:45:25.733Z,6.48
2019-01-16T09:48:14.248Z,6.47
2019-01-16T09:50:52.258Z,6.45
2019-01-16T09:53:33.662Z,6.46
2019-01-16T09:56:22.534Z,6.48
2019-01-16T09:59:11.882Z,6.48
2019-01-16T10:02:10.686Z,6.48
2019-01-16T10:05:03.635Z,6.49
2019-01-16T10:07:50.841Z,6.47
2019-01-16T10:10:44.227Z,6.41
2019-01-16T10:13:32.936Z,6.39
2019-01-16T10:16:21.550Z,6.43
2019-01-16T10:19:05.355Z,6.38
2019-01-16T10:22:01.316Z,6.36
2019-01-16T10:24:49.909Z,6.29
2019-01-16T10:27:36.537Z,6.26
2019-01-16T10:30:42.760Z,6.26
2019-01-16T10:33:38.792Z,6.30
2019-01-16T10:36:28.248Z,6.31
2019-01-16T10:39:18.112Z,6.30
2019-01-16T10:42:06.599Z,6.30
2019-01-16T10:44:50.078Z,6.30
2019-01-16T10:47:44.356Z,6.27
2019-01-16T10:50:37.339Z,6.23
2019-01-16T10:53:45.435Z,6.20
2019-01-16T10:56:27.509Z,6.21
2019-01-16T10:59:09.318Z,6.18
2019-01-16T11:01:50.140Z,6.17
2019-01-16T11:04:52.309Z,6.15
2019-01-16T11:07:51.337Z,6.14
2019-01-16T11:10:47.577Z,6.12
2019-01-16T11:13:37.805Z,6.15
2019-01-16T11:16:33.876Z,6.15
2019-01-16T11:19:23.882Z,6.13
2019-01-16T11:22:13.492Z,6.15
2019-01-16T11:25:02.499Z,6.17
2019-01-16T11:28:07.694Z,6.16
2019-01-16T11:31:10.254Z,6.17
2019-01-16T11:34:00.268Z,6.20
2019-01-16T11:36:53.484Z,6.23
2019-01-16T11:39:42.247Z,6.29
2019-01-16T11:42:31.189Z,6.32
2019-01-16T11:45:21.099Z,6.32
2019-01-16T11:48:09.873Z,6.33
2019-01-16T11:50:59.887Z,6.39
2019-01-16T11:53:49.820Z,6.47
2019-01-16T11:56:46.036Z,6.46
2019-01-16T11:59:38.799Z,6.42
2019-01-16T12:02:30.485Z,6.44
2019-01-16T12:05:21.995Z,6.48
2019-01-16T12:08:21.920Z,6.50
2019-01-16T12:11:10.624Z,6.58
2019-01-16T12:14:09.726Z,6.64
2019-01-16T12:17:05.451Z,6.62
2019-01-16T12:19:48.365Z,6.53
2019-01-16T12:22:38.292Z,6.59
2019-01-16T12:25:19.009Z,6.52
2019-01-16T12:28:14.944Z,6.50
2019-01-16T12:31:04.337Z,6.45
2019-01-16T12:34:03.332Z,6.46
2019-01-16T12:37:05.353Z,6.44
2019-01-16T12:40:13.694Z,6.42
2019-01-16T12:43:16.065Z,6.36
2019-01-16T12:46:21.331Z,6.36
2019-01-16T12:49:13.980Z,6.37
2019-01-16T12:52:36.074Z,6.38
2019-01-16T12:55:47.714Z,6.40
2019-01-16T12:59:02.693Z,6.47
2019-01-16T13:01:53.769Z,6.45
2019-01-16T13:08:11.539Z,6.41
2019-01-16T13:11:16.832Z,6.42
2019-01-16T13:14:15.725Z,6.46
2019-01-16T13:17:14.641Z,6.50
2019-01-16T13:19:56.436Z,6.53
2019-01-16T13:22:46.580Z,6.52
2019-01-16T13:25:48.699Z,6.50
2019-01-16T13:28:48.721Z,6.50
2019-01-16T13:31:47.830Z,6.49
2019-01-16T13:34:50.082Z,6.50
2019-01-16T13:37:39.213Z,6.53
2019-01-16T13:40:28.842Z,6.64
2019-01-16T13:43:22.492Z,6.70
2019-01-16T13:46:31.277Z,6.78
2019-01-16T13:49:17.508Z,6.83
2019-01-16T13:52:02.846Z,6.73
2019-01-16T13:54:56.184Z,6.81
2019-01-16T13:57:46.132Z,6.72
2019-01-16T14:00:48.713Z,6.63
2019-01-16T14:03:37.896Z,6.54
2019-01-16T14:06:27.203Z,6.49
2019-01-16T14:09:15.632Z,6.46
2019-01-16T14:12:14.468Z,6.44
2019-01-16T14:15:03.345Z,6.42
2019-01-16T14:18:15.699Z,6.39
2019-01-16T14:21:20.965Z,6.38
2019-01-16T14:24:09.826Z,6.38
2019-01-16T14:27:00.997Z,6.34
2019-01-16T14:29:49.230Z,6.36
2019-01-16T14:32:38.113Z,6.35
2019-01-16T14:35:46.323Z,6.33
2019-01-16T14:38:49.604Z,6.30
2019-01-16T14:41:40.044Z,6.29
2019-01-16T14:44:24.766Z,6.30
2019-01-16T14:47:23.722Z,6.22
2019-01-16T14:50:19.838Z,6.29
2019-01-16T14:53:10.824Z,6.30
2019-01-16T14:56:09.641Z,6.30
2019-01-16T14:59:02.385Z,6.28
2019-01-16T15:01:50.970Z,6.26
2019-01-16T15:04:56.537Z,6.25
2019-01-16T15:08:02.038Z,6.20
2019-01-16T15:10:51.525Z,6.18
2019-01-16T15:13:50.677Z,6.17
2019-01-16T15:16:40.607Z,6.15
2019-01-16T15:19:42.515Z,6.13
2019-01-16T15:22:38.784Z,6.13
2019-01-16T15:25:30.569Z,6.10
2019-01-16T15:28:19.090Z,6.08
2019-01-16T15:31:10.058Z,6.05
2019-01-16T15:34:12.073Z,6.05
2019-01-16T15:36:59.016Z,6.04
2019-01-16T15:39:48.976Z,6.03
2019-01-16T15:42:38.828Z,6.04
2019-01-16T15:45:39.798Z,6.05
2019-01-16T15:48:47.734Z,6.05
2019-01-16T15:51:40.751Z,6.03
2019-01-16T15:54:29.674Z,6.05
2019-01-16T15:57:23.791Z,6.04
2019-01-16T16:00:20.707Z,6.03
2019-01-16T16:03:10.132Z,6.04
2019-01-16T16:05:53.652Z,6.07
2019-01-16T16:08:52.758Z,6.07
2019-01-16T16:11:41.503Z,6.02
2019-01-16T16:14:24.872Z,6.05
2019-01-16T16:17:14.433Z,6.01
2019-01-16T16:20:04.339Z,6.01
2019-01-16T16:22:48.749Z,5.99
2019-01-16T16:25:34.327Z,5.99
2019-01-16T16:28:27.163Z,6.00
2019-01-16T16:31:26.401Z,5.98
2019-01-16T16:34:25.309Z,5.98
2019-01-16T16:37:16.247Z,5.97
2019-01-16T16:40:06.190Z,5.96
2019-01-16T16:42:55.098Z,5.96
2019-01-16T16:46:04.614Z,5.97
2019-01-16T16:49:01.597Z,5.95
2019-01-16T16:51:52.470Z,5.94
2019-01-16T16:54:58.728Z,5.92
2019-01-16T16:57:55.503Z,5.89
2019-01-16T17:00:49.415Z,5.87
2019-01-16T17:03:52.681Z,5.88
2019-01-16T17:06:58.608Z,5.89
2019-01-16T17:09:52.352Z,5.90
2019-01-16T17:12:47.606Z,5.90
2019-01-16T17:15:37.498Z,5.90
2019-01-16T17:18:39.465Z,5.92
2019-01-16T17:21:26.177Z,5.90
2019-01-16T17:24:08.782Z,5.90
2019-01-16T17:27:14.917Z,5.92
2019-01-16T17:29:57.157Z,5.89
2019-01-16T17:32:46.624Z,5.88
2019-01-16T17:35:40.528Z,5.87
2019-01-16T17:38:22.480Z,5.87
2019-01-16T17:41:16.264Z,5.91
2019-01-16T17:44:19.360Z,5.89
2019-01-16T17:47:10.264Z,5.88
2019-01-16T17:50:01.173Z,6.03
2019-01-16T17:52:47.916Z,6.13
2019-01-16T17:55:51.014Z,6.28
2019-01-16T17:58:41.913Z,6.30
2019-01-16T18:01:32.756Z,6.22
2019-01-16T18:04:35.976Z,6.10
2019-01-16T18:07:25.470Z,6.04
2019-01-16T18:10:28.622Z,6.00
2019-01-16T18:13:10.069Z,5.97
2019-01-16T18:15:59.556Z,5.98
2019-01-16T18:18:41.174Z,5.95
2019-01-16T18:21:24.504Z,5.90
2019-01-16T18:24:14.857Z,5.89
2019-01-16T18:27:21.131Z,5.86
2019-01-16T18:30:10.712Z,5.87
2019-01-16T18:33:02.815Z,5.83
2019-01-16T18:35:56.870Z,5.84
2019-01-16T18:38:40.322Z,5.86
2019-01-16T18:41:29.752Z,5.82
2019-01-16T18:44:32.708Z,5.84
2019-01-16T18:47:19.664Z,5.84
2019-01-16T18:50:09.424Z,5.83
2019-01-16T18:53:03.329Z,5.79
2019-01-16T18:55:51.682Z,5.79
2019-01-16T18:58:48.611Z,5.79
2019-01-16T19:01:54.881Z,5.79
2019-01-16T19:04:44.476Z,5.79
2019-01-16T19:07:50.358Z,5.77
2019-01-16T19:10:43.986Z,5.76
2019-01-16T19:13:33.755Z,5.79
2019-01-16T19:16:34.114Z,5.78
2019-01-16T19:19:23.634Z,5.77
2019-01-16T19:22:17.489Z,5.75
2019-01-16T19:25:11.407Z,5.78
2019-01-16T19:28:00.928Z,5.76
2019-01-16T19:30:54.886Z,5.73
2019-01-16T19:33:39.735Z,5.72
2019-01-16T19:36:30.601Z,5.73
2019-01-16T19:39:19.969Z,5.73
2019-01-16T19:42:22.464Z,5.75
2019-01-16T19:45:31.794Z,5.74
2019-01-16T19:48:22.665Z,5.71
2019-01-16T19:51:05.322Z,5.71
2019-01-16T19:53:56.276Z,5.72
2019-01-16T19:56:59.479Z,5.72
2019-01-16T19:59:59.237Z,5.69
2019-01-16T20:02:49.049Z,5.69
2019-01-16T20:05:49.215Z,5.63
2019-01-16T20:08:49.188Z,5.64
2019-01-16T20:11:38.969Z,5.63
2019-01-16T20:14:32.598Z,5.62
2019-01-16T20:17:37.746Z,5.60
2019-01-16T20:20:29.434Z,5.62
2019-01-16T20:23:18.786Z,5.60
2019-01-16T20:26:08.469Z,5.57
2019-01-16T20:29:14.808Z,5.57
2019-01-16T20:31:55.671Z,5.53
2019-01-16T20:34:35.426Z,5.51
2019-01-16T20:37:24.683Z,5.53
2019-01-16T20:40:21.827Z,5.51
2019-01-16T20:43:12.796Z,5.52
2019-01-16T20:46:21.920Z,5.49
2019-01-16T20:49:25.184Z,5.49
2019-01-16T20:52:12.722Z,5.47
2019-01-16T20:54:52.032Z,5.44
2019-01-16T20:57:44.782Z,5.42
2019-01-16T21:00:42.238Z,5.39
2019-01-16T21:06:20.765Z,5.38
2019-01-16T21:09:10.251Z,5.35
2019-01-16T21:11:59.637Z,5.34
2019-01-16T21:14:53.226Z,5.35
2019-01-16T21:18:02.186Z,5.34
2019-01-16T21:20:55.702Z,5.35
2019-01-16T21:23:45.627Z,5.35
2019-01-16T21:26:42.667Z,5.37
2019-01-16T21:29:39.926Z,5.37
2019-01-16T21:32:30.865Z,5.37
2019-01-16T21:35:21.793Z,5.37
2019-01-16T21:38:15.478Z,5.33
2019-01-16T21:41:09.291Z,5.35
2019-01-16T21:44:06.103Z,5.34
2019-01-16T21:46:58.195Z,5.28
2019-01-16T21:49:47.610Z,5.25
2019-01-16T21:52:38.915Z,5.19
2019-01-16T21:55:34.367Z,5.16
2019-01-16T21:58:25.237Z,5.05
2019-01-16T22:01:04.594Z,5.08
2019-01-16T22:03:59.716Z,5.06
2019-01-16T22:06:53.507Z,5.06
2019-01-16T22:11:54.724Z,5.07
2019-01-16T22:14:45.548Z,5.02
2019-01-16T22:17:42.351Z,5.03
2019-01-16T22:20:48.591Z,4.99
2019-01-16T22:23:41.530Z,4.96
2019-01-16T22:26:22.475Z,4.90
2019-01-16T22:29:19.787Z,4.89
2019-01-16T22:32:15.055Z,4.82
2019-01-16T22:35:06.375Z,4.81
2019-01-16T22:37:56.226Z,4.77
2019-01-16T22:41:06.127Z,4.75
2019-01-16T22:43:53.282Z,4.71
2019-01-16T22:46:44.365Z,4.71
2019-01-16T22:49:34.509Z,4.72
2019-01-16T22:52:32.132Z,4.71
2019-01-16T22:55:26.521Z,4.71
2019-01-16T22:58:33.256Z,4.66
2019-01-16T23:01:11.446Z,4.64
2019-01-16T23:03:55.530Z,4.61
2019-01-16T23:06:45.693Z,4.60
2019-01-16T23:09:37.017Z,4.58
2019-01-16T23:12:31.111Z,4.57
2019-01-16T23:15:18.333Z,4.61
2019-01-16T23:18:12.671Z,4.57
2019-01-16T23:21:13.054Z,4.57
2019-01-16T23:24:12.640Z,4.51
2019-01-16T23:27:16.379Z,4.47
2019-01-16T23:30:07.738Z,4.45
2019-01-16T23:32:57.611Z,4.47
2019-01-16T23:35:50.458Z,4.48
2019-01-16T23:38:47.619Z,4.48
2019-01-16T23:41:38.637Z,4.43
2019-01-16T23:44:28.937Z,4.36
2019-01-16T23:47:17.834Z,4.27
2019-01-16T23:50:01.345Z,4.22
2019-01-16T23:52:59.029Z,4.19
2019-01-16T23:55:59.257Z,4.15
2019-01-16T23:58:49.244Z,4.07
